sensor_id;sensor_type;location;lat;lon;timestamp;P1;durP1;ratioP1;P2;durP2;ratioP2
74656;SDS011;63185;45.642;13.764;2023-05-10T00:00:33;8.27;;;3.50;;
74656;SDS011;63185;45.642;13.764;2023-05-10T00:02:59;6.18;;;2.95;;
74656;SDS011;63185;45.642;13.764;2023-05-10T00:05:24;5.35;;;2.35;;
74656;SDS011;63185;45.642;13.764;2023-05-10T00:07:50;5.05;;;2.70;;
74656;SDS011;63185;45.642;13.764;2023-05-10T00:10:16;6.32;;;2.88;;
74656;SDS011;63185;45.642;13.764;2023-05-10T00:12:41;6.05;;;2.80;;
74656;SDS011;63185;45.642;13.764;2023-05-10T00:15:07;6.07;;;3.00;;
74656;SDS011;63185;45.642;13.764;2023-05-10T00:17:33;5.82;;;3.00;;
74656;SDS011;63185;45.642;13.764;2023-05-10T00:19:59;5.88;;;3.13;;
74656;SDS011;63185;45.642;13.764;2023-05-10T00:22:25;4.95;;;2.65;;
74656;SDS011;63185;45.642;13.764;2023-05-10T00:24:51;7.72;;;3.08;;
74656;SDS011;63185;45.642;13.764;2023-05-10T00:27:17;6.65;;;2.88;;
74656;SDS011;63185;45.642;13.764;2023-05-10T00:29:42;5.93;;;2.70;;
74656;SDS011;63185;45.642;13.764;2023-05-10T00:32:08;5.68;;;2.85;;
74656;SDS011;63185;45.642;13.764;2023-05-10T00:34:34;4.60;;;2.70;;
74656;SDS011;63185;45.642;13.764;2023-05-10T00:36:59;6.03;;;2.80;;
74656;SDS011;63185;45.642;13.764;2023-05-10T00:39:25;7.95;;;2.80;;
74656;SDS011;63185;45.642;13.764;2023-05-10T00:41:51;7.10;;;2.85;;
74656;SDS011;63185;45.642;13.764;2023-05-10T00:44:17;5.13;;;2.95;;
74656;SDS011;63185;45.642;13.764;2023-05-10T00:46:43;5.85;;;2.70;;
74656;SDS011;63185;45.642;13.764;2023-05-10T00:49:10;5.47;;;2.80;;
74656;SDS011;63185;45.642;13.764;2023-05-10T00:51:36;6.50;;;2.90;;
74656;SDS011;63185;45.642;13.764;2023-05-10T00:54:02;5.07;;;2.78;;
74656;SDS011;63185;45.642;13.764;2023-05-10T00:56:28;4.80;;;2.80;;
74656;SDS011;63185;45.642;13.764;2023-05-10T00:58:55;7.10;;;2.95;;
74656;SDS011;63185;45.642;13.764;2023-05-10T01:01:21;8.15;;;2.88;;
74656;SDS011;63185;45.642;13.764;2023-05-10T01:03:47;4.78;;;2.92;;
74656;SDS011;63185;45.642;13.764;2023-05-10T01:06:13;6.57;;;2.80;;
74656;SDS011;63185;45.642;13.764;2023-05-10T01:08:39;5.68;;;2.92;;
74656;SDS011;63185;45.642;13.764;2023-05-10T01:11:05;6.57;;;3.00;;
74656;SDS011;63185;45.642;13.764;2023-05-10T01:13:37;6.10;;;3.20;;
74656;SDS011;63185;45.642;13.764;2023-05-10T01:16:06;5.82;;;3.10;;
74656;SDS011;63185;45.642;13.764;2023-05-10T01:18:35;5.60;;;3.10;;
74656;SDS011;63185;45.642;13.764;2023-05-10T01:26:59;4.88;;;2.92;;
74656;SDS011;63185;45.642;13.764;2023-05-10T01:37:52;5.80;;;3.10;;
74656;SDS011;63185;45.642;13.764;2023-05-10T01:40:35;6.80;;;3.10;;
74656;SDS011;63185;45.642;13.764;2023-05-10T01:43:08;5.88;;;3.30;;
74656;SDS011;63185;45.642;13.764;2023-05-10T01:45:50;6.82;;;3.38;;
74656;SDS011;63185;45.642;13.764;2023-05-10T01:48:24;5.93;;;3.20;;
74656;SDS011;63185;45.642;13.764;2023-05-10T01:50:53;5.68;;;3.05;;
74656;SDS011;63185;45.642;13.764;2023-05-10T01:53:19;6.03;;;3.00;;
74656;SDS011;63185;45.642;13.764;2023-05-10T01:55:46;4.93;;;2.83;;
74656;SDS011;63185;45.642;13.764;2023-05-10T01:58:15;4.78;;;2.60;;
74656;SDS011;63185;45.642;13.764;2023-05-10T02:00:46;5.03;;;3.05;;
74656;SDS011;63185;45.642;13.764;2023-05-10T02:03:13;6.32;;;3.25;;
74656;SDS011;63185;45.642;13.764;2023-05-10T02:05:41;7.60;;;3.50;;
74656;SDS011;63185;45.642;13.764;2023-05-10T02:08:10;5.43;;;3.27;;
74656;SDS011;63185;45.642;13.764;2023-05-10T02:10:37;6.03;;;3.33;;
74656;SDS011;63185;45.642;13.764;2023-05-10T02:13:05;8.75;;;3.38;;
74656;SDS011;63185;45.642;13.764;2023-05-10T02:15:32;6.00;;;3.22;;
74656;SDS011;63185;45.642;13.764;2023-05-10T02:18:00;5.07;;;3.33;;
74656;SDS011;63185;45.642;13.764;2023-05-10T02:20:28;5.22;;;3.15;;
74656;SDS011;63185;45.642;13.764;2023-05-10T02:22:57;5.60;;;3.10;;
74656;SDS011;63185;45.642;13.764;2023-05-10T02:25:23;4.80;;;3.38;;
74656;SDS011;63185;45.642;13.764;2023-05-10T02:27:51;5.40;;;3.05;;
74656;SDS011;63185;45.642;13.764;2023-05-10T02:30:20;6.57;;;3.00;;
74656;SDS011;63185;45.642;13.764;2023-05-10T02:32:46;5.93;;;3.72;;
74656;SDS011;63185;45.642;13.764;2023-05-10T02:35:14;5.43;;;3.35;;
74656;SDS011;63185;45.642;13.764;2023-05-10T02:37:40;4.72;;;3.30;;
74656;SDS011;63185;45.642;13.764;2023-05-10T02:40:06;4.97;;;3.22;;
74656;SDS011;63185;45.642;13.764;2023-05-10T02:42:35;6.25;;;3.33;;
74656;SDS011;63185;45.642;13.764;2023-05-10T02:45:04;4.93;;;3.28;;
74656;SDS011;63185;45.642;13.764;2023-05-10T02:47:33;4.60;;;3.15;;
74656;SDS011;63185;45.642;13.764;2023-05-10T02:49:59;6.60;;;3.22;;
74656;SDS011;63185;45.642;13.764;2023-05-10T02:52:26;6.18;;;3.05;;
74656;SDS011;63185;45.642;13.764;2023-05-10T02:54:54;7.57;;;3.30;;
74656;SDS011;63185;45.642;13.764;2023-05-10T02:57:27;6.90;;;3.28;;
74656;SDS011;63185;45.642;13.764;2023-05-10T02:59:56;6.93;;;3.00;;
74656;SDS011;63185;45.642;13.764;2023-05-10T03:02:22;6.40;;;3.28;;
74656;SDS011;63185;45.642;13.764;2023-05-10T03:04:48;6.15;;;3.25;;
74656;SDS011;63185;45.642;13.764;2023-05-10T03:07:14;6.72;;;3.30;;
74656;SDS011;63185;45.642;13.764;2023-05-10T03:09:40;5.25;;;3.55;;
74656;SDS011;63185;45.642;13.764;2023-05-10T03:12:18;6.57;;;3.45;;
74656;SDS011;63185;45.642;13.764;2023-05-10T03:15:17;7.07;;;3.00;;
74656;SDS011;63185;45.642;13.764;2023-05-10T03:17:58;4.35;;;3.20;;
74656;SDS011;63185;45.642;13.764;2023-05-10T03:20:31;6.03;;;3.15;;
74656;SDS011;63185;45.642;13.764;2023-05-10T03:25:50;6.55;;;3.63;;
74656;SDS011;63185;45.642;13.764;2023-05-10T03:28:17;6.75;;;3.67;;
74656;SDS011;63185;45.642;13.764;2023-05-10T03:30:45;4.97;;;3.38;;
74656;SDS011;63185;45.642;13.764;2023-05-10T03:33:12;7.63;;;3.55;;
74656;SDS011;63185;45.642;13.764;2023-05-10T03:35:38;8.95;;;3.90;;
74656;SDS011;63185;45.642;13.764;2023-05-10T03:38:04;6.00;;;3.70;;
74656;SDS011;63185;45.642;13.764;2023-05-10T03:40:30;7.97;;;3.55;;
74656;SDS011;63185;45.642;13.764;2023-05-10T03:42:57;8.20;;;3.80;;
74656;SDS011;63185;45.642;13.764;2023-05-10T03:45:23;5.75;;;3.65;;
74656;SDS011;63185;45.642;13.764;2023-05-10T03:47:49;6.55;;;3.40;;
74656;SDS011;63185;45.642;13.764;2023-05-10T03:50:15;7.03;;;3.38;;
74656;SDS011;63185;45.642;13.764;2023-05-10T03:52:41;5.78;;;3.58;;
74656;SDS011;63185;45.642;13.764;2023-05-10T03:55:07;6.95;;;3.40;;
74656;SDS011;63185;45.642;13.764;2023-05-10T03:57:33;7.43;;;3.90;;
74656;SDS011;63185;45.642;13.764;2023-05-10T03:59:59;5.03;;;3.25;;
74656;SDS011;63185;45.642;13.764;2023-05-10T04:02:25;6.72;;;3.90;;
74656;SDS011;63185;45.642;13.764;2023-05-10T04:04:51;6.85;;;4.10;;
74656;SDS011;63185;45.642;13.764;2023-05-10T04:07:16;5.85;;;3.60;;
74656;SDS011;63185;45.642;13.764;2023-05-10T04:09:43;6.13;;;3.45;;
74656;SDS011;63185;45.642;13.764;2023-05-10T04:12:08;6.05;;;3.53;;
74656;SDS011;63185;45.642;13.764;2023-05-10T04:14:34;5.50;;;3.67;;
74656;SDS011;63185;45.642;13.764;2023-05-10T04:17:00;5.47;;;3.58;;
74656;SDS011;63185;45.642;13.764;2023-05-10T04:19:31;6.75;;;3.55;;
74656;SDS011;63185;45.642;13.764;2023-05-10T04:21:58;6.03;;;3.75;;
74656;SDS011;63185;45.642;13.764;2023-05-10T04:24:24;7.28;;;3.97;;
74656;SDS011;63185;45.642;13.764;2023-05-10T04:26:49;10.63;;;3.40;;
74656;SDS011;63185;45.642;13.764;2023-05-10T04:29:15;8.02;;;3.80;;
74656;SDS011;63185;45.642;13.764;2023-05-10T04:31:41;4.88;;;3.40;;
74656;SDS011;63185;45.642;13.764;2023-05-10T04:34:07;5.10;;;3.70;;
74656;SDS011;63185;45.642;13.764;2023-05-10T04:36:33;5.88;;;3.65;;
74656;SDS011;63185;45.642;13.764;2023-05-10T04:39:00;5.63;;;3.35;;
74656;SDS011;63185;45.642;13.764;2023-05-10T04:41:27;7.30;;;3.45;;
74656;SDS011;63185;45.642;13.764;2023-05-10T04:43:53;7.75;;;3.90;;
74656;SDS011;63185;45.642;13.764;2023-05-10T04:46:19;9.30;;;3.72;;
74656;SDS011;63185;45.642;13.764;2023-05-10T04:48:45;6.43;;;3.47;;
74656;SDS011;63185;45.642;13.764;2023-05-10T04:51:10;8.43;;;4.18;;
74656;SDS011;63185;45.642;13.764;2023-05-10T04:53:37;8.60;;;3.85;;
74656;SDS011;63185;45.642;13.764;2023-05-10T04:56:03;8.07;;;3.90;;
74656;SDS011;63185;45.642;13.764;2023-05-10T04:58:28;5.47;;;3.83;;
74656;SDS011;63185;45.642;13.764;2023-05-10T05:00:54;10.10;;;3.90;;
74656;SDS011;63185;45.642;13.764;2023-05-10T05:03:20;7.68;;;3.90;;
74656;SDS011;63185;45.642;13.764;2023-05-10T05:05:47;8.95;;;3.78;;
74656;SDS011;63185;45.642;13.764;2023-05-10T05:08:12;7.63;;;4.20;;
74656;SDS011;63185;45.642;13.764;2023-05-10T05:10:38;6.22;;;3.72;;
74656;SDS011;63185;45.642;13.764;2023-05-10T05:13:04;10.82;;;3.63;;
74656;SDS011;63185;45.642;13.764;2023-05-10T05:15:30;7.72;;;4.03;;
74656;SDS011;63185;45.642;13.764;2023-05-10T05:17:56;9.32;;;4.70;;
74656;SDS011;63185;45.642;13.764;2023-05-10T05:20:21;8.15;;;4.40;;
74656;SDS011;63185;45.642;13.764;2023-05-10T05:22:47;9.27;;;4.40;;
74656;SDS011;63185;45.642;13.764;2023-05-10T05:25:13;7.38;;;4.00;;
74656;SDS011;63185;45.642;13.764;2023-05-10T05:27:40;7.40;;;4.07;;
74656;SDS011;63185;45.642;13.764;2023-05-10T05:30:06;7.38;;;4.35;;
74656;SDS011;63185;45.642;13.764;2023-05-10T05:32:32;7.50;;;4.15;;
74656;SDS011;63185;45.642;13.764;2023-05-10T05:34:57;6.38;;;4.05;;
74656;SDS011;63185;45.642;13.764;2023-05-10T05:37:23;6.18;;;3.85;;
74656;SDS011;63185;45.642;13.764;2023-05-10T05:39:49;7.68;;;4.28;;
74656;SDS011;63185;45.642;13.764;2023-05-10T05:42:15;8.30;;;4.25;;
74656;SDS011;63185;45.642;13.764;2023-05-10T05:44:42;7.97;;;4.30;;
74656;SDS011;63185;45.642;13.764;2023-05-10T05:47:08;9.02;;;4.25;;
74656;SDS011;63185;45.642;13.764;2023-05-10T05:49:34;8.30;;;4.40;;
74656;SDS011;63185;45.642;13.764;2023-05-10T05:52:00;7.60;;;4.28;;
74656;SDS011;63185;45.642;13.764;2023-05-10T05:54:27;7.40;;;4.28;;
74656;SDS011;63185;45.642;13.764;2023-05-10T05:56:56;6.72;;;3.90;;
74656;SDS011;63185;45.642;13.764;2023-05-10T05:59:23;7.38;;;4.18;;
74656;SDS011;63185;45.642;13.764;2023-05-10T06:01:49;6.18;;;4.28;;
74656;SDS011;63185;45.642;13.764;2023-05-10T06:04:15;6.55;;;4.32;;
74656;SDS011;63185;45.642;13.764;2023-05-10T06:06:41;6.43;;;4.00;;
74656;SDS011;63185;45.642;13.764;2023-05-10T06:09:07;8.52;;;4.55;;
74656;SDS011;63185;45.642;13.764;2023-05-10T06:11:33;6.03;;;3.88;;
74656;SDS011;63185;45.642;13.764;2023-05-10T06:13:59;7.20;;;4.57;;
74656;SDS011;63185;45.642;13.764;2023-05-10T06:16:26;7.07;;;4.13;;
74656;SDS011;63185;45.642;13.764;2023-05-10T06:18:52;6.50;;;4.20;;
74656;SDS011;63185;45.642;13.764;2023-05-10T06:21:17;6.75;;;4.10;;
74656;SDS011;63185;45.642;13.764;2023-05-10T06:23:43;7.60;;;3.83;;
74656;SDS011;63185;45.642;13.764;2023-05-10T06:26:09;6.65;;;4.30;;
74656;SDS011;63185;45.642;13.764;2023-05-10T06:28:35;7.97;;;4.25;;
74656;SDS011;63185;45.642;13.764;2023-05-10T06:31:03;8.02;;;4.20;;
74656;SDS011;63185;45.642;13.764;2023-05-10T06:33:29;8.52;;;4.45;;
74656;SDS011;63185;45.642;13.764;2023-05-10T06:35:55;9.02;;;4.20;;
74656;SDS011;63185;45.642;13.764;2023-05-10T06:38:21;9.07;;;4.32;;
74656;SDS011;63185;45.642;13.764;2023-05-10T06:40:46;7.57;;;3.97;;
74656;SDS011;63185;45.642;13.764;2023-05-10T06:43:12;6.43;;;3.72;;
74656;SDS011;63185;45.642;13.764;2023-05-10T06:45:38;8.90;;;4.50;;
74656;SDS011;63185;45.642;13.764;2023-05-10T06:48:04;7.32;;;3.90;;
74656;SDS011;63185;45.642;13.764;2023-05-10T06:50:29;7.78;;;4.00;;
74656;SDS011;63185;45.642;13.764;2023-05-10T06:52:55;8.23;;;4.10;;
74656;SDS011;63185;45.642;13.764;2023-05-10T06:55:21;9.55;;;4.28;;
74656;SDS011;63185;45.642;13.764;2023-05-10T06:57:47;6.55;;;3.88;;
74656;SDS011;63185;45.642;13.764;2023-05-10T07:00:13;5.93;;;4.40;;
74656;SDS011;63185;45.642;13.764;2023-05-10T07:02:39;9.32;;;4.30;;
74656;SDS011;63185;45.642;13.764;2023-05-10T07:05:05;9.85;;;4.30;;
74656;SDS011;63185;45.642;13.764;2023-05-10T07:07:31;9.20;;;3.90;;
74656;SDS011;63185;45.642;13.764;2023-05-10T07:09:56;8.20;;;4.25;;
74656;SDS011;63185;45.642;13.764;2023-05-10T07:12:23;7.93;;;3.97;;
74656;SDS011;63185;45.642;13.764;2023-05-10T07:14:49;8.40;;;4.60;;
74656;SDS011;63185;45.642;13.764;2023-05-10T07:17:14;7.07;;;4.10;;
74656;SDS011;63185;45.642;13.764;2023-05-10T07:19:40;11.27;;;4.35;;
74656;SDS011;63185;45.642;13.764;2023-05-10T07:22:06;7.40;;;4.38;;
74656;SDS011;63185;45.642;13.764;2023-05-10T07:24:32;10.43;;;4.80;;
74656;SDS011;63185;45.642;13.764;2023-05-10T07:26:58;7.97;;;4.05;;
74656;SDS011;63185;45.642;13.764;2023-05-10T07:29:24;8.77;;;4.25;;
74656;SDS011;63185;45.642;13.764;2023-05-10T07:31:50;10.38;;;4.57;;
74656;SDS011;63185;45.642;13.764;2023-05-10T07:34:16;7.85;;;4.40;;
74656;SDS011;63185;45.642;13.764;2023-05-10T07:36:42;6.75;;;4.45;;
74656;SDS011;63185;45.642;13.764;2023-05-10T07:39:07;8.68;;;4.30;;
74656;SDS011;63185;45.642;13.764;2023-05-10T07:41:33;6.57;;;4.32;;
74656;SDS011;63185;45.642;13.764;2023-05-10T07:43:59;7.28;;;4.57;;
74656;SDS011;63185;45.642;13.764;2023-05-10T07:46:25;8.70;;;5.28;;
74656;SDS011;63185;45.642;13.764;2023-05-10T07:48:50;9.48;;;4.40;;
74656;SDS011;63185;45.642;13.764;2023-05-10T07:51:16;8.02;;;4.43;;
74656;SDS011;63185;45.642;13.764;2023-05-10T07:53:42;7.93;;;4.53;;
74656;SDS011;63185;45.642;13.764;2023-05-10T07:56:26;7.20;;;4.63;;
74656;SDS011;63185;45.642;13.764;2023-05-10T07:58:57;6.60;;;4.80;;
74656;SDS011;63185;45.642;13.764;2023-05-10T08:01:24;9.15;;;4.50;;
74656;SDS011;63185;45.642;13.764;2023-05-10T08:03:50;7.60;;;4.55;;
74656;SDS011;63185;45.642;13.764;2023-05-10T08:06:19;6.82;;;4.50;;
74656;SDS011;63185;45.642;13.764;2023-05-10T08:11:15;8.38;;;4.22;;
74656;SDS011;63185;45.642;13.764;2023-05-10T08:13:42;9.73;;;4.93;;
74656;SDS011;63185;45.642;13.764;2023-05-10T08:16:08;7.85;;;4.93;;
74656;SDS011;63185;45.642;13.764;2023-05-10T08:18:35;7.72;;;4.82;;
74656;SDS011;63185;45.642;13.764;2023-05-10T08:21:01;7.25;;;4.50;;
74656;SDS011;63185;45.642;13.764;2023-05-10T08:23:27;11.10;;;4.93;;
74656;SDS011;63185;45.642;13.764;2023-05-10T08:25:52;7.30;;;4.90;;
74656;SDS011;63185;45.642;13.764;2023-05-10T08:28:18;10.35;;;4.93;;
74656;SDS011;63185;45.642;13.764;2023-05-10T08:30:44;8.82;;;4.40;;
74656;SDS011;63185;45.642;13.764;2023-05-10T08:33:09;8.02;;;4.50;;
74656;SDS011;63185;45.642;13.764;2023-05-10T08:35:35;7.90;;;4.82;;
74656;SDS011;63185;45.642;13.764;2023-05-10T08:38:01;7.03;;;4.30;;
74656;SDS011;63185;45.642;13.764;2023-05-10T08:40:26;9.45;;;4.72;;
74656;SDS011;63185;45.642;13.764;2023-05-10T08:43:04;7.00;;;4.85;;
74656;SDS011;63185;45.642;13.764;2023-05-10T08:45:32;7.40;;;5.20;;
74656;SDS011;63185;45.642;13.764;2023-05-10T08:48:01;7.65;;;5.25;;
74656;SDS011;63185;45.642;13.764;2023-05-10T08:50:27;9.45;;;5.10;;
74656;SDS011;63185;45.642;13.764;2023-05-10T08:52:55;10.90;;;5.47;;
74656;SDS011;63185;45.642;13.764;2023-05-10T08:55:25;8.85;;;5.15;;
74656;SDS011;63185;45.642;13.764;2023-05-10T08:57:51;9.95;;;5.30;;
74656;SDS011;63185;45.642;13.764;2023-05-10T09:00:17;8.95;;;5.60;;
74656;SDS011;63185;45.642;13.764;2023-05-10T09:02:43;8.43;;;5.85;;
74656;SDS011;63185;45.642;13.764;2023-05-10T09:05:11;11.13;;;7.45;;
74656;SDS011;63185;45.642;13.764;2023-05-10T09:07:37;9.85;;;6.63;;
74656;SDS011;63185;45.642;13.764;2023-05-10T09:10:03;9.85;;;6.82;;
74656;SDS011;63185;45.642;13.764;2023-05-10T09:12:29;9.90;;;6.10;;
74656;SDS011;63185;45.642;13.764;2023-05-10T09:14:55;8.73;;;6.13;;
74656;SDS011;63185;45.642;13.764;2023-05-10T09:17:24;11.95;;;6.13;;
74656;SDS011;63185;45.642;13.764;2023-05-10T09:20:01;9.38;;;6.10;;
74656;SDS011;63185;45.642;13.764;2023-05-10T09:22:29;11.63;;;6.22;;
74656;SDS011;63185;45.642;13.764;2023-05-10T09:25:06;8.35;;;5.70;;
74656;SDS011;63185;45.642;13.764;2023-05-10T09:27:40;11.13;;;5.65;;
74656;SDS011;63185;45.642;13.764;2023-05-10T09:30:07;10.82;;;5.43;;
74656;SDS011;63185;45.642;13.764;2023-05-10T09:32:43;8.18;;;5.53;;
74656;SDS011;63185;45.642;13.764;2023-05-10T09:35:10;8.20;;;5.53;;
74656;SDS011;63185;45.642;13.764;2023-05-10T09:37:41;9.38;;;5.90;;
74656;SDS011;63185;45.642;13.764;2023-05-10T09:40:12;11.45;;;6.35;;
74656;SDS011;63185;45.642;13.764;2023-05-10T09:42:50;9.15;;;5.95;;
74656;SDS011;63185;45.642;13.764;2023-05-10T09:47:46;11.07;;;6.10;;
74656;SDS011;63185;45.642;13.764;2023-05-10T09:50:12;10.68;;;6.30;;
74656;SDS011;63185;45.642;13.764;2023-05-10T09:55:12;11.50;;;5.80;;
74656;SDS011;63185;45.642;13.764;2023-05-10T09:57:38;11.52;;;5.88;;
74656;SDS011;63185;45.642;13.764;2023-05-10T10:00:04;9.65;;;6.45;;
74656;SDS011;63185;45.642;13.764;2023-05-10T10:02:31;11.48;;;6.32;;
74656;SDS011;63185;45.642;13.764;2023-05-10T10:04:57;10.15;;;6.47;;
74656;SDS011;63185;45.642;13.764;2023-05-10T10:07:25;10.95;;;6.40;;
74656;SDS011;63185;45.642;13.764;2023-05-10T10:09:51;32.90;;;13.68;;
74656;SDS011;63185;45.642;13.764;2023-05-10T10:12:18;21.70;;;9.60;;
74656;SDS011;63185;45.642;13.764;2023-05-10T10:14:46;31.20;;;12.05;;
74656;SDS011;63185;45.642;13.764;2023-05-10T10:17:13;20.55;;;9.60;;
74656;SDS011;63185;45.642;13.764;2023-05-10T10:19:39;17.13;;;8.98;;
74656;SDS011;63185;45.642;13.764;2023-05-10T10:22:05;15.43;;;8.65;;
74656;SDS011;63185;45.642;13.764;2023-05-10T10:24:31;47.30;;;16.60;;
74656;SDS011;63185;45.642;13.764;2023-05-10T10:26:58;39.00;;;14.55;;
74656;SDS011;63185;45.642;13.764;2023-05-10T10:30:02;125.15;;;38.58;;
74656;SDS011;63185;45.642;13.764;2023-05-10T10:32:44;93.75;;;28.73;;
74656;SDS011;63185;45.642;13.764;2023-05-10T10:35:13;47.83;;;17.45;;
74656;SDS011;63185;45.642;13.764;2023-05-10T10:37:41;20.48;;;8.85;;
74656;SDS011;63185;45.642;13.764;2023-05-10T10:40:25;66.63;;;22.05;;
74656;SDS011;63185;45.642;13.764;2023-05-10T10:42:52;50.50;;;17.77;;
74656;SDS011;63185;45.642;13.764;2023-05-10T10:45:19;24.83;;;10.48;;
74656;SDS011;63185;45.642;13.764;2023-05-10T10:47:46;12.23;;;7.78;;
74656;SDS011;63185;45.642;13.764;2023-05-10T10:50:11;46.45;;;16.58;;
74656;SDS011;63185;45.642;13.764;2023-05-10T10:52:44;29.40;;;12.77;;
74656;SDS011;63185;45.642;13.764;2023-05-10T10:57:45;29.67;;;11.88;;
74656;SDS011;63185;45.642;13.764;2023-05-10T11:08:09;29.95;;;13.30;;
74656;SDS011;63185;45.642;13.764;2023-05-10T11:11:02;61.50;;;21.75;;
74656;SDS011;63185;45.642;13.764;2023-05-10T11:15:58;15.93;;;9.57;;
74656;SDS011;63185;45.642;13.764;2023-05-10T11:18:36;28.80;;;11.00;;
74656;SDS011;63185;45.642;13.764;2023-05-10T11:21:02;14.77;;;8.82;;
74656;SDS011;63185;45.642;13.764;2023-05-10T11:23:47;27.35;;;11.90;;
74656;SDS011;63185;45.642;13.764;2023-05-10T11:26:14;20.25;;;9.93;;
74656;SDS011;63185;45.642;13.764;2023-05-10T11:28:42;14.00;;;7.55;;
74656;SDS011;63185;45.642;13.764;2023-05-10T11:31:08;12.98;;;8.02;;
74656;SDS011;63185;45.642;13.764;2023-05-10T11:33:44;39.75;;;15.85;;
74656;SDS011;63185;45.642;13.764;2023-05-10T11:36:14;26.83;;;11.75;;
74656;SDS011;63185;45.642;13.764;2023-05-10T11:38:41;20.48;;;10.15;;
74656;SDS011;63185;45.642;13.764;2023-05-10T11:41:08;20.55;;;9.63;;
74656;SDS011;63185;45.642;13.764;2023-05-10T11:43:35;32.50;;;13.88;;
74656;SDS011;63185;45.642;13.764;2023-05-10T11:46:03;16.13;;;8.82;;
74656;SDS011;63185;45.642;13.764;2023-05-10T11:48:33;14.80;;;8.43;;
74656;SDS011;63185;45.642;13.764;2023-05-10T11:51:00;17.80;;;9.20;;
74656;SDS011;63185;45.642;13.764;2023-05-10T11:53:27;31.17;;;13.55;;
74656;SDS011;63185;45.642;13.764;2023-05-10T11:56:06;19.83;;;8.20;;
74656;SDS011;63185;45.642;13.764;2023-05-10T11:58:33;24.60;;;10.52;;
74656;SDS011;63185;45.642;13.764;2023-05-10T12:01:00;18.17;;;9.95;;
74656;SDS011;63185;45.642;13.764;2023-05-10T12:03:26;14.75;;;8.07;;
74656;SDS011;63185;45.642;13.764;2023-05-10T12:05:53;23.88;;;10.10;;
74656;SDS011;63185;45.642;13.764;2023-05-10T12:08:23;15.43;;;7.68;;
74656;SDS011;63185;45.642;13.764;2023-05-10T12:10:50;21.35;;;9.82;;
74656;SDS011;63185;45.642;13.764;2023-05-10T12:13:17;13.77;;;7.18;;
74656;SDS011;63185;45.642;13.764;2023-05-10T12:15:45;17.08;;;9.00;;
74656;SDS011;63185;45.642;13.764;2023-05-10T12:18:12;55.22;;;22.20;;
74656;SDS011;63185;45.642;13.764;2023-05-10T12:20:39;11.05;;;7.00;;
74656;SDS011;63185;45.642;13.764;2023-05-10T12:23:05;17.55;;;9.05;;
74656;SDS011;63185;45.642;13.764;2023-05-10T12:25:33;17.33;;;8.93;;
74656;SDS011;63185;45.642;13.764;2023-05-10T12:28:02;14.13;;;6.95;;
74656;SDS011;63185;45.642;13.764;2023-05-10T12:30:30;10.10;;;6.28;;
74656;SDS011;63185;45.642;13.764;2023-05-10T12:33:10;13.50;;;6.25;;
74656;SDS011;63185;45.642;13.764;2023-05-10T12:35:46;15.43;;;7.93;;
74656;SDS011;63185;45.642;13.764;2023-05-10T12:38:26;8.57;;;6.25;;
74656;SDS011;63185;45.642;13.764;2023-05-10T12:41:00;11.13;;;6.57;;
74656;SDS011;63185;45.642;13.764;2023-05-10T12:43:32;9.13;;;6.43;;
74656;SDS011;63185;45.642;13.764;2023-05-10T12:45:58;16.95;;;7.65;;
74656;SDS011;63185;45.642;13.764;2023-05-10T12:48:28;12.77;;;7.75;;
74656;SDS011;63185;45.642;13.764;2023-05-10T12:50:56;7.10;;;5.93;;
74656;SDS011;63185;45.642;13.764;2023-05-10T12:53:21;11.07;;;6.55;;
74656;SDS011;63185;45.642;13.764;2023-05-10T12:55:47;9.65;;;6.30;;
74656;SDS011;63185;45.642;13.764;2023-05-10T12:58:13;14.23;;;7.30;;
74656;SDS011;63185;45.642;13.764;2023-05-10T13:00:39;10.90;;;6.95;;
74656;SDS011;63185;45.642;13.764;2023-05-10T13:03:04;15.77;;;7.10;;
74656;SDS011;63185;45.642;13.764;2023-05-10T13:05:33;10.90;;;6.25;;
74656;SDS011;63185;45.642;13.764;2023-05-10T13:07:59;11.68;;;6.47;;
74656;SDS011;63185;45.642;13.764;2023-05-10T13:10:25;12.30;;;7.35;;
74656;SDS011;63185;45.642;13.764;2023-05-10T13:12:51;13.00;;;7.22;;
74656;SDS011;63185;45.642;13.764;2023-05-10T13:15:17;8.88;;;6.75;;
74656;SDS011;63185;45.642;13.764;2023-05-10T13:17:42;15.23;;;7.20;;
74656;SDS011;63185;45.642;13.764;2023-05-10T13:20:10;12.13;;;6.53;;
74656;SDS011;63185;45.642;13.764;2023-05-10T13:22:36;8.95;;;6.35;;
74656;SDS011;63185;45.642;13.764;2023-05-10T13:25:02;9.68;;;5.93;;
74656;SDS011;63185;45.642;13.764;2023-05-10T13:27:28;9.95;;;6.82;;
74656;SDS011;63185;45.642;13.764;2023-05-10T13:29:53;9.35;;;6.63;;
74656;SDS011;63185;45.642;13.764;2023-05-10T13:32:20;12.57;;;7.38;;
74656;SDS011;63185;45.642;13.764;2023-05-10T13:34:45;8.65;;;6.60;;
74656;SDS011;63185;45.642;13.764;2023-05-10T13:37:11;10.27;;;6.60;;
74656;SDS011;63185;45.642;13.764;2023-05-10T13:39:37;12.80;;;6.97;;
74656;SDS011;63185;45.642;13.764;2023-05-10T13:42:06;10.23;;;6.70;;
74656;SDS011;63185;45.642;13.764;2023-05-10T13:44:32;9.37;;;6.83;;
74656;SDS011;63185;45.642;13.764;2023-05-10T13:46:58;11.00;;;7.72;;
74656;SDS011;63185;45.642;13.764;2023-05-10T13:49:24;11.38;;;7.55;;
74656;SDS011;63185;45.642;13.764;2023-05-10T13:51:50;8.77;;;7.05;;
74656;SDS011;63185;45.642;13.764;2023-05-10T13:54:16;12.45;;;7.45;;
74656;SDS011;63185;45.642;13.764;2023-05-10T13:56:44;10.75;;;6.63;;
74656;SDS011;63185;45.642;13.764;2023-05-10T13:59:12;12.20;;;7.55;;
74656;SDS011;63185;45.642;13.764;2023-05-10T14:01:39;14.43;;;8.07;;
74656;SDS011;63185;45.642;13.764;2023-05-10T14:04:05;10.57;;;7.80;;
74656;SDS011;63185;45.642;13.764;2023-05-10T14:06:32;9.25;;;7.53;;
74656;SDS011;63185;45.642;13.764;2023-05-10T14:08:58;14.27;;;8.48;;
74656;SDS011;63185;45.642;13.764;2023-05-10T14:11:24;10.35;;;7.15;;
74656;SDS011;63185;45.642;13.764;2023-05-10T14:13:49;10.52;;;7.68;;
74656;SDS011;63185;45.642;13.764;2023-05-10T14:16:15;12.40;;;8.02;;
74656;SDS011;63185;45.642;13.764;2023-05-10T14:18:41;11.48;;;7.88;;
74656;SDS011;63185;45.642;13.764;2023-05-10T14:21:06;10.70;;;8.10;;
74656;SDS011;63185;45.642;13.764;2023-05-10T14:23:32;12.20;;;8.25;;
74656;SDS011;63185;45.642;13.764;2023-05-10T14:25:58;12.73;;;8.15;;
74656;SDS011;63185;45.642;13.764;2023-05-10T14:28:23;11.07;;;8.50;;
74656;SDS011;63185;45.642;13.764;2023-05-10T14:30:50;10.68;;;8.18;;
74656;SDS011;63185;45.642;13.764;2023-05-10T14:33:16;10.75;;;8.77;;
74656;SDS011;63185;45.642;13.764;2023-05-10T14:35:42;10.93;;;7.93;;
74656;SDS011;63185;45.642;13.764;2023-05-10T14:38:07;13.85;;;8.82;;
74656;SDS011;63185;45.642;13.764;2023-05-10T14:40:33;9.48;;;7.88;;
74656;SDS011;63185;45.642;13.764;2023-05-10T14:43:00;11.00;;;8.48;;
74656;SDS011;63185;45.642;13.764;2023-05-10T14:45:25;10.30;;;8.65;;
74656;SDS011;63185;45.642;13.764;2023-05-10T14:47:51;11.02;;;9.13;;
74656;SDS011;63185;45.642;13.764;2023-05-10T14:50:17;13.43;;;9.38;;
74656;SDS011;63185;45.642;13.764;2023-05-10T14:52:43;10.50;;;8.52;;
74656;SDS011;63185;45.642;13.764;2023-05-10T14:55:09;10.98;;;8.50;;
74656;SDS011;63185;45.642;13.764;2023-05-10T14:57:35;10.82;;;8.35;;
74656;SDS011;63185;45.642;13.764;2023-05-10T15:00:01;11.40;;;8.73;;
74656;SDS011;63185;45.642;13.764;2023-05-10T15:02:28;14.82;;;8.85;;
74656;SDS011;63185;45.642;13.764;2023-05-10T15:04:55;10.98;;;8.80;;
74656;SDS011;63185;45.642;13.764;2023-05-10T15:07:22;11.27;;;8.30;;